Time;durP1;ratioP1;P1;durP2;ratioP2;P2;SDS_P1;SDS_P2;PMS_P1;PMS_P2;Temp;Humidity;BMP_temperature;BMP_pressure;BME280_temperature;BME280_humidity;BME280_pressure;Samples;Min_cycle;Max_cycle;Signal;HPM_P1;HPM_P2
2022/10/17 00:02:23;;;;;;;1.23;0.75;;;22.90;65.90;;;;;;6183670;28;20140;-62
2022/10/17 00:05:25;;;;;;;0.73;0.60;;;22.80;65.90;;;;;;6184607;28;20987;-61
2022/10/17 00:08:26;;;;;;;;;;;23.10;66.20;;;;;;6189219;28;20045;-62
2022/10/17 00:11:28;;;;;;;0.77;0.70;;;22.80;66.20;;;;;;6189338;28;19931;-61
2022/10/17 00:14:29;;;;;;;;;;;23.00;66.20;;;;;;6187801;28;20049;-62
2022/10/17 00:17:31;;;;;;;1.00;0.70;;;22.70;66.20;;;;;;6185091;28;20681;-63
2022/10/17 00:20:34;;;;;;;1.20;0.77;;;22.80;66.10;;;;;;6188953;28;20069;-62
2022/10/17 00:23:36;;;;;;;1.10;0.80;;;23.30;66.20;;;;;;6183993;28;20121;-62
2022/10/17 00:26:37;;;;;;;;;;;22.90;66.10;;;;;;6188655;28;20111;-61
2022/10/17 00:29:40;;;;;;;0.90;0.60;;;22.60;66.30;;;;;;6184424;28;20846;-62
2022/10/17 00:32:41;;;;;;;0.95;0.80;;;23.20;65.80;;;;;;6187143;28;20136;-62
2022/10/17 00:35:43;;;;;;;0.95;0.80;;;23.20;66.40;;;;;;6189200;28;20045;-61
2022/10/17 00:38:45;;;;;;;;;;;23.00;66.20;;;;;;6184009;28;20041;-63
2022/10/17 00:41:46;;;;;;;1.33;0.82;;;22.60;66.20;;;;;;6177204;28;19925;-62
2022/10/17 00:45:09;;;;;;;0.80;0.50;;;22.60;66.20;;;;;;6184024;28;20065;-62
2022/10/17 00:48:15;;;;;;;1.00;0.80;;;23.10;66.20;;;;;;6152357;28;20120;-61
2022/10/17 00:51:29;;;;;;;0.70;0.50;;;22.80;66.00;;;;;;6179180;28;20165;-62
2022/10/17 00:54:33;;;;;;;0.77;0.68;;;22.90;66.30;;;;;;6178862;28;20041;-61
2022/10/17 00:57:35;;;;;;;1.73;0.70;;;22.50;65.80;;;;;;6179571;28;20050;-60
2022/10/17 01:00:37;;;;;;;0.95;0.80;;;22.80;66.10;;;;;;6162885;28;20172;-62
2022/10/17 01:03:39;;;;;;;0.65;0.47;;;22.80;66.20;;;;;;6184070;28;20932;-61
2022/10/17 01:06:40;;;;;;;;;;;22.80;66.30;;;;;;6167439;28;21064;-62
2022/10/17 01:09:44;;;;;;;0.82;0.65;;;22.60;66.40;;;;;;6168744;28;19936;-62
2022/10/17 01:13:03;;;;;;;0.47;0.47;;;23.00;66.20;;;;;;6186447;28;20036;-61
2022/10/17 01:16:10;;;;;;;0.98;0.75;;;22.80;66.20;;;;;;6182221;28;20049;-61
2022/10/17 01:19:34;;;;;;;0.82;0.60;;;22.70;66.10;;;;;;6163107;28;20060;-62
2022/10/17 01:22:45;;;;;;;0.90;0.60;;;22.70;66.10;;;;;;6168699;28;20042;-62
2022/10/17 01:25:54;;;;;;;0.90;0.70;;;22.70;66.10;;;;;;6184506;28;20157;-62
2022/10/17 01:29:14;;;;;;;0.93;0.73;;;22.80;66.20;;;;;;6181836;28;20053;-62
2022/10/17 01:32:19;;;;;;;0.60;0.52;;;22.60;66.00;;;;;;6181989;28;20030;-62
2022/10/17 01:35:26;;;;;;;0.90;0.60;;;22.90;66.10;;;;;;6183810;28;20053;-62
2022/10/17 01:38:33;;;;;;;0.47;0.47;;;23.00;66.20;;;;;;6169599;28;20144;-62
2022/10/17 01:41:39;;;;;;;0.52;0.52;;;22.70;66.10;;;;;;6186448;28;20043;-62
2022/10/17 01:44:47;;;;;;;0.80;0.70;;;22.90;66.20;;;;;;6175032;28;20175;-62
2022/10/17 01:47:51;;;;;;;0.80;0.70;;;22.80;66.10;;;;;;6191111;28;20068;-62
2022/10/17 01:50:59;;;;;;;0.90;0.70;;;22.70;66.10;;;;;;6185306;28;20029;-61
2022/10/17 01:54:05;;;;;;;0.60;0.50;;;22.90;66.10;;;;;;6171933;28;20049;-62
2022/10/17 01:57:15;;;;;;;0.57;0.38;;;23.00;66.20;;;;;;6182724;28;20660;-61
2022/10/17 02:00:21;;;;;;;0.85;0.60;;;22.80;66.10;;;;;;6188252;28;20038;-61
2022/10/17 02:03:27;;;;;;;0.45;0.45;;;22.60;66.00;;;;;;6186521;28;20038;-62
2022/10/17 02:06:33;;;;;;;0.50;0.47;;;22.80;66.10;;;;;;6187511;28;20326;-61
2022/10/17 02:09:35;;;;;;;0.70;0.55;;;22.70;66.10;;;;;;6174932;28;20044;-62
2022/10/17 02:12:48;;;;;;;0.50;0.40;;;22.80;66.50;;;;;;6189166;28;20149;-62
2022/10/17 02:16:02;;;;;;;0.50;0.50;;;22.80;66.10;;;;;;6155134;28;20378;-62
2022/10/17 02:19:22;;;;;;;0.73;0.60;;;22.90;66.30;;;;;;6186701;28;20331;-61
2022/10/17 02:22:34;;;;;;;0.65;0.43;;;22.90;66.20;;;;;;6184329;28;20339;-62
2022/10/17 02:25:41;;;;;;;0.60;0.50;;;23.10;66.30;;;;;;6183213;28;20056;-61
2022/10/17 02:28:53;;;;;;;1.42;0.57;;;22.90;66.30;;;;;;6179717;28;20045;-62
2022/10/17 02:31:59;;;;;;;0.88;0.73;;;22.30;66.00;;;;;;6180978;28;20685;-63
2022/10/17 02:35:04;;;;;;;0.88;0.50;;;22.90;66.40;;;;;;6181266;28;20246;-62
2022/10/17 02:38:10;;;;;;;0.52;0.45;;;22.60;66.20;;;;;;6183668;28;20091;-62
2022/10/17 02:41:15;;;;;;;0.50;0.50;;;23.10;66.50;;;;;;6190241;28;20045;-62
2022/10/17 02:44:18;;;;;;;0.65;0.50;;;22.80;66.60;;;;;;6189394;28;20045;-62
2022/10/17 02:47:25;;;;;;;0.52;0.47;;;22.80;66.30;;;;;;6189443;28;20129;-62
2022/10/17 02:50:32;;;;;;;0.80;0.50;;;22.90;66.30;;;;;;6186175;28;20049;-62
2022/10/17 02:53:42;;;;;;;0.80;0.60;;;23.00;66.40;;;;;;6193235;28;20042;-61
2022/10/17 02:56:55;;;;;;;0.50;0.40;;;22.90;66.30;;;;;;6189779;28;20041;-62
2022/10/17 02:59:59;;;;;;;0.38;0.38;;;22.90;66.30;;;;;;6185816;28;20116;-62
2022/10/17 03:03:00;;;;;;;0.50;0.50;;;22.40;66.10;;;;;;6185552;28;20513;-61
2022/10/17 03:06:02;;;;;;;;;;;22.30;66.20;;;;;;6184566;28;20054;-62
2022/10/17 03:09:04;;;;;;;0.60;0.50;;;22.60;66.60;;;;;;6182704;28;20435;-61
2022/10/17 03:12:06;;;;;;;0.43;0.43;;;22.90;66.50;;;;;;6169676;28;20871;-61
2022/10/17 03:15:09;;;;;;;0.80;0.60;;;22.60;66.50;;;;;;6185581;28;20050;-61
2022/10/17 03:18:11;;;;;;;0.40;0.40;;;22.50;66.30;;;;;;6187582;28;20481;-61
2022/10/17 03:21:13;;;;;;;0.82;0.60;;;22.60;66.40;;;;;;6172012;28;20147;-62
2022/10/17 03:24:15;;;;;;;0.60;0.40;;;22.60;66.30;;;;;;6169708;28;20612;-61
2022/10/17 03:27:17;;;;;;;0.60;0.40;;;23.00;66.90;;;;;;6186155;28;20042;-61
2022/10/17 03:30:20;;;;;;;0.52;0.40;;;22.90;66.70;;;;;;6187269;28;20045;-62
2022/10/17 03:33:21;;;;;;;0.50;0.50;;;22.90;66.80;;;;;;6172260;28;20052;-62
2022/10/17 03:36:23;;;;;;;;;;;22.80;66.70;;;;;;6192041;28;20123;-61
2022/10/17 03:39:25;;;;;;;0.63;0.45;;;22.50;66.80;;;;;;6189999;28;19932;-61
2022/10/17 03:42:27;;;;;;;0.80;0.52;;;22.70;66.70;;;;;;6187850;28;20068;-61
2022/10/17 03:45:29;;;;;;;0.40;0.40;;;22.50;66.60;;;;;;6193421;28;20037;-61
2022/10/17 03:48:32;;;;;;;0.70;0.60;;;22.90;66.90;;;;;;6188149;28;20053;-60
2022/10/17 03:51:39;;;;;;;0.82;0.60;;;22.70;66.70;;;;;;6173289;28;20045;-62
2022/10/17 03:54:46;;;;;;;0.63;0.50;;;22.40;66.10;;;;;;6189763;28;20099;-62
2022/10/17 03:57:50;;;;;;;0.50;0.30;;;22.90;67.00;;;;;;6188674;28;20111;-62
2022/10/17 04:00:54;;;;;;;0.90;0.50;;;22.40;66.60;;;;;;6187738;28;20046;-62
2022/10/17 04:03:56;;;;;;;0.52;0.50;;;22.80;67.00;;;;;;6184907;28;20072;-62
2022/10/17 04:07:02;;;;;;;0.70;0.57;;;22.40;66.70;;;;;;6185129;28;20049;-61
2022/10/17 04:10:04;;;;;;;0.70;0.32;;;23.30;67.40;;;;;;6185196;28;20606;-61
2022/10/17 04:13:06;;;;;;;0.73;0.60;;;22.70;66.90;;;;;;6186694;28;20768;-62
2022/10/17 04:16:13;;;;;;;0.70;0.40;;;22.60;67.00;;;;;;6191388;28;20029;-61
2022/10/17 04:19:22;;;;;;;0.68;0.52;;;22.50;66.70;;;;;;6153250;28;20155;-61
2022/10/17 04:22:25;;;;;;;0.40;0.40;;;22.90;67.10;;;;;;6185614;28;20087;-61
2022/10/17 04:25:27;;;;;;;0.38;0.30;;;22.40;66.70;;;;;;6184660;28;20309;-61
2022/10/17 04:28:29;;;;;;;0.50;0.47;;;22.70;67.10;;;;;;6175516;28;21054;-61
2022/10/17 04:31:31;;;;;;;0.45;0.40;;;22.30;66.80;;;;;;6176157;28;20054;-61
2022/10/17 04:34:47;;;;;;;0.40;0.40;;;22.90;67.30;;;;;;6179773;28;20267;-62
2022/10/17 04:37:49;;;;;;;0.60;0.47;;;22.90;67.10;;;;;;6176751;28;20060;-59
2022/10/17 04:40:52;;;;;;;0.60;0.40;;;22.50;67.10;;;;;;6177372;28;20815;-60
2022/10/17 04:43:54;;;;;;;0.60;0.40;;;23.00;67.40;;;;;;6179954;28;20552;-60
2022/10/17 04:46:56;;;;;;;0.70;0.50;;;22.70;67.30;;;;;;6172589;28;20489;-62
2022/10/17 04:49:57;;;;;;;;;;;22.70;67.30;;;;;;6174620;28;20718;-61
2022/10/17 04:53:00;;;;;;;0.50;0.40;;;22.30;66.70;;;;;;6177152;28;20619;-61
2022/10/17 04:56:07;;;;;;;0.40;0.40;;;22.80;67.00;;;;;;6171099;28;20451;-61
2022/10/17 04:59:09;;;;;;;0.40;0.40;;;22.60;67.00;;;;;;6140562;28;20060;-61
2022/10/17 05:02:14;;;;;;;0.38;0.30;;;22.80;67.10;;;;;;6172222;28;20042;-61
2022/10/17 05:05:15;;;;;;;0.50;0.45;;;23.60;67.80;;;;;;6180729;28;20109;-62
2022/10/17 05:08:20;;;;;;;0.50;0.50;;;22.70;67.20;;;;;;6163115;28;20041;-61
2022/10/17 05:11:23;;;;;;;0.47;0.40;;;23.00;67.20;;;;;;6172115;28;20045;-61
2022/10/17 05:14:28;;;;;;;0.65;0.65;;;22.30;66.80;;;;;;6177921;28;20202;-62
2022/10/17 05:17:35;;;;;;;0.50;0.43;;;22.80;67.20;;;;;;6183736;28;20046;-62
2022/10/17 05:20:37;;;;;;;0.50;0.40;;;22.80;65.90;;;;;;6178028;28;21053;-62
2022/10/17 05:23:41;;;;;;;0.40;0.30;;;22.60;67.10;;;;;;6179875;28;20277;-62
2022/10/17 05:26:43;;;;;;;0.50;0.50;;;22.80;67.20;;;;;;6178552;28;20042;-61
2022/10/17 05:29:45;;;;;;;0.40;0.40;;;22.80;67.40;;;;;;6169246;28;20916;-61
2022/10/17 05:32:55;;;;;;;0.40;0.40;;;22.80;66.90;;;;;;6172968;28;20041;-62
2022/10/17 05:35:56;;;;;;;0.98;0.63;;;22.70;67.30;;;;;;6168814;28;20293;-61
2022/10/17 05:39:08;;;;;;;0.22;0.20;;;22.50;66.90;;;;;;5778427;28;21495;-62
2022/10/17 05:42:11;;;;;;;0.40;0.30;;;22.00;65.70;;;;;;6169898;28;20042;-61
2022/10/17 05:45:13;;;;;;;0.55;0.47;;;22.90;67.10;;;;;;6160611;28;20874;-61
2022/10/17 05:48:15;;;;;;;0.50;0.38;;;22.70;67.30;;;;;;6165390;28;20179;-61
2022/10/17 05:51:16;;;;;;;0.55;0.45;;;22.80;67.40;;;;;;6166795;28;20156;-61
2022/10/17 05:54:18;;;;;;;0.73;0.50;;;23.30;67.60;;;;;;6164090;28;20060;-62
2022/10/17 05:57:20;;;;;;;0.60;0.40;;;22.60;67.10;;;;;;6162008;28;20084;-62
2022/10/17 06:00:22;;;;;;;0.75;0.38;;;22.60;67.30;;;;;;6161987;28;20049;-62
2022/10/17 06:03:31;;;;;;;0.50;0.40;;;22.90;67.30;;;;;;6159189;28;20190;-61
2022/10/17 06:06:36;;;;;;;0.32;0.30;;;22.50;67.20;;;;;;6126387;28;20038;-62
2022/10/17 06:09:39;;;;;;;0.70;0.45;;;22.80;67.30;;;;;;6141577;28;20128;-62
2022/10/17 06:12:40;;;;;;;0.45;0.38;;;22.90;67.00;;;;;;6140127;28;20042;-62
2022/10/17 06:15:42;;;;;;;0.30;0.30;;;23.00;67.10;;;;;;6137211;28;20120;-62
2022/10/17 06:18:44;;;;;;;0.30;0.30;;;22.50;67.20;;;;;;6116473;28;20045;-62
2022/10/17 06:21:46;;;;;;;0.38;0.32;;;22.90;67.00;;;;;;6134946;28;20042;-62
2022/10/17 06:24:52;;;;;;;0.60;0.35;;;22.70;67.10;;;;;;6141525;28;20167;-62
2022/10/17 06:27:54;;;;;;;0.30;0.30;;;22.90;67.30;;;;;;6132123;28;20042;-61
2022/10/17 06:30:56;;;;;;;0.73;0.40;;;23.10;67.60;;;;;;6133235;28;20052;-61
2022/10/17 06:33:58;;;;;;;0.70;0.50;;;22.20;66.90;;;;;;6119696;28;21556;-61
2022/10/17 06:37:00;;;;;;;0.93;0.40;;;22.50;67.20;;;;;;6112557;28;21475;-61
2022/10/17 06:40:06;;;;;;;0.52;0.30;;;22.80;67.00;;;;;;6090669;28;21391;-61
2022/10/17 06:43:08;;;;;;;0.32;0.32;;;22.80;67.10;;;;;;6066926;28;21311;-62
2022/10/17 06:46:33;;;;;;;1.10;0.25;;;22.50;67.40;;;;;;6028258;28;20037;-62
2022/10/17 06:49:39;;;;;;;0.35;0.20;;;23.00;68.20;;;;;;5658798;28;20526;-60
2022/10/17 06:52:57;;;;;;;0.95;0.40;;;22.80;67.70;;;;;;6040776;28;21638;-61
2022/10/17 06:56:18;;;;;;;0.40;0.30;;;22.90;67.10;;;;;;6024819;28;20065;-59
2022/10/17 06:59:31;;;;;;;2.90;0.52;;;22.90;67.50;;;;;;6019360;28;20052;-61
2022/10/17 07:02:38;;;;;;;2.00;0.40;;;22.50;67.20;;;;;;5996652;28;20151;-61
2022/10/17 07:05:40;;;;;;;0.80;0.30;;;22.80;68.20;;;;;;5941242;28;20052;-61
2022/10/17 07:08:43;;;;;;;0.70;0.45;;;22.70;67.90;;;;;;5969695;28;21006;-60
2022/10/17 07:11:51;;;;;;;0.50;0.30;;;22.60;67.50;;;;;;5205254;28;21853;-63
2022/10/17 07:15:03;;;;;;;0.90;0.30;;;22.30;67.80;;;;;;4112487;28;21007;-62
2022/10/17 07:18:09;;;;;;;0.55;0.32;;;22.60;67.80;;;;;;5147303;28;21666;-60
2022/10/17 07:21:13;;;;;;;0.60;0.30;;;22.40;67.40;;;;;;5521556;28;20397;-61
2022/10/17 07:24:15;;;;;;;1.48;0.47;;;22.90;68.20;;;;;;5126826;28;23616;-59
2022/10/17 07:27:22;;;;;;;2.67;0.40;;;23.10;68.00;;;;;;5902094;28;23366;-60
2022/10/17 07:35:18;;;;;;;0.20;0.20;;;22.40;66.70;;;;;;5820266;28;20142;-55
2022/10/17 07:38:21;;;;;;;0.82;0.40;;;22.90;67.80;;;;;;5735302;28;23735;-54
2022/10/17 07:41:23;;;;;;;0.30;0.30;;;22.90;68.10;;;;;;5817213;28;21763;-54
2022/10/17 07:44:25;;;;;;;0.63;0.35;;;22.70;67.80;;;;;;5826013;28;20942;-55
2022/10/17 07:47:29;;;;;;;1.08;0.40;;;23.10;68.00;;;;;;5879879;28;20129;-56
2022/10/17 07:50:33;;;;;;;1.65;0.35;;;23.10;68.00;;;;;;5876890;28;21614;-58
2022/10/17 07:53:36;;;;;;;0.55;0.40;;;23.00;68.00;;;;;;5873273;28;21418;-56
2022/10/17 07:56:37;;;;;;;0.30;0.20;;;22.90;67.90;;;;;;5876749;28;21254;-55
2022/10/17 07:59:39;;;;;;;0.98;0.57;;;23.10;68.00;;;;;;5853128;28;21797;-59
2022/10/17 08:02:41;;;;;;;1.27;0.30;;;23.10;67.80;;;;;;5819753;28;20085;-58
2022/10/17 08:05:45;;;;;;;1.00;0.20;;;22.50;67.40;;;;;;5809356;28;21287;-53
2022/10/17 08:08:50;;;;;;;0.43;0.30;;;23.30;67.50;;;;;;5836977;28;26230;-50
2022/10/17 08:11:51;;;;;;;0.45;0.17;;;23.30;67.90;;;;;;5808851;28;25428;-53
2022/10/17 08:23:43;;;;;;;1.27;0.30;;;23.00;66.20;;;;;;3537578;28;22412;-53
2022/10/17 08:26:45;;;;;;;0.35;0.20;;;23.20;67.60;;;;;;5832708;28;20510;-57
2022/10/17 08:29:52;;;;;;;1.55;0.20;;;23.30;67.20;;;;;;5875098;28;23649;-55
2022/10/17 08:32:55;;;;;;;1.23;0.28;;;23.30;66.50;;;;;;5916209;28;20046;-57
2022/10/17 08:35:58;;;;;;;1.33;0.30;;;23.30;66.90;;;;;;5875750;28;20057;-57
2022/10/17 08:38:59;;;;;;;0.40;0.20;;;23.00;66.30;;;;;;5860543;28;20055;-57
2022/10/17 08:42:16;;;;;;;0.20;0.20;;;23.10;66.60;;;;;;5895297;28;22089;-57
2022/10/17 08:45:27;;;;;;;0.38;0.32;;;23.30;66.40;;;;;;5860082;28;20178;-57
2022/10/17 08:48:33;;;;;;;0.40;0.35;;;22.90;66.30;;;;;;5489069;28;20042;-58
2022/10/17 08:51:44;;;;;;;1.00;0.30;;;23.50;66.70;;;;;;4918811;28;22904;-57
2022/10/17 08:54:47;;;;;;;0.70;0.30;;;23.40;66.20;;;;;;5869007;28;22369;-56
2022/10/17 08:57:49;;;;;;;0.68;0.30;;;23.20;66.10;;;;;;4978994;28;21015;-57
2022/10/17 09:01:01;;;;;;;2.38;0.20;;;23.40;66.10;;;;;;4864572;28;20045;-54
2022/10/17 09:04:34;;;;;;;0.45;0.20;;;23.40;65.80;;;;;;4657384;28;21778;-54
2022/10/17 09:07:46;;;;;;;2.13;0.63;;;23.00;66.10;;;;;;5847775;28;20722;-53
2022/10/17 09:10:56;;;;;;;2.28;0.35;;;22.50;65.00;;;;;;5883609;28;20048;-54
2022/10/17 09:14:10;;;;;;;0.73;0.25;;;23.60;65.60;;;;;;5876841;28;23364;-55
2022/10/17 09:17:21;;;;;;;0.25;0.25;;;23.50;65.80;;;;;;5874264;28;22482;-54
2022/10/17 09:20:27;;;;;;;0.40;0.20;;;23.00;65.20;;;;;;5908408;28;20165;-53
2022/10/17 09:23:33;;;;;;;0.20;0.20;;;23.30;65.70;;;;;;5900162;28;20171;-58
2022/10/17 09:26:34;;;;;;;0.20;0.20;;;23.30;65.70;;;;;;5899653;28;24025;-57
2022/10/17 09:29:36;;;;;;;0.30;0.20;;;23.40;65.80;;;;;;5869087;28;20200;-55
2022/10/17 09:32:46;;;;;;;0.63;0.20;;;23.50;65.50;;;;;;5847456;28;20242;-55
2022/10/17 09:35:49;;;;;;;1.95;0.30;;;23.10;65.60;;;;;;5831185;28;20049;-56
2022/10/17 09:38:53;;;;;;;1.60;0.10;;;23.50;65.40;;;;;;5931993;28;20191;-57
2022/10/17 09:41:58;;;;;;;0.40;0.22;;;23.20;65.30;;;;;;5894663;28;20091;-56
2022/10/17 09:45:13;;;;;;;0.17;0.17;;;23.60;65.40;;;;;;5903959;28;20048;-54
2022/10/17 09:48:21;;;;;;;2.13;0.20;;;23.50;65.40;;;;;;5914585;28;20587;-56
2022/10/17 09:51:24;;;;;;;0.30;0.20;;;23.10;65.40;;;;;;5901444;28;20044;-56
2022/10/17 09:54:35;;;;;;;0.52;0.40;;;23.40;65.30;;;;;;5896183;28;20084;-56
2022/10/17 09:57:52;;;;;;;0.63;0.20;;;23.20;65.00;;;;;;5864984;28;22742;-56
2022/10/17 10:01:13;;;;;;;0.20;0.10;;;23.50;65.20;;;;;;5896224;28;20046;-57
2022/10/17 10:04:16;;;;;;;0.38;0.10;;;23.30;65.30;;;;;;5882259;28;20052;-55
2022/10/17 10:07:19;;;;;;;0.90;0.25;;;23.50;65.20;;;;;;5842173;28;20792;-57
2022/10/17 10:10:24;;;;;;;1.17;0.20;;;23.60;65.00;;;;;;5867161;28;20046;-56
2022/10/17 10:13:30;;;;;;;1.33;0.22;;;23.30;64.90;;;;;;5851932;28;20157;-56
2022/10/17 10:16:32;;;;;;;0.15;0.15;;;23.20;64.90;;;;;;4551467;28;23418;-58
2022/10/17 10:19:37;;;;;;;2.20;0.20;;;23.40;65.20;;;;;;5236441;28;22497;-55
2022/10/17 10:22:43;;;;;;;2.25;0.30;;;23.00;64.40;;;;;;3920549;28;21796;-58
2022/10/17 10:25:52;;;;;;;0.43;0.20;;;23.40;65.40;;;;;;3971429;28;22123;-59
2022/10/17 10:28:59;;;;;;;0.75;0.10;;;23.40;65.40;;;;;;5796542;28;31504;-58
2022/10/17 10:32:11;;;;;;;0.77;0.25;;;23.00;64.50;;;;;;5961817;28;32560;-59
2022/10/17 10:35:20;;;;;;;0.20;0.10;;;23.60;64.90;;;;;;6014723;28;20052;-59
2022/10/17 10:38:23;;;;;;;0.22;0.10;;;23.60;64.70;;;;;;6012440;28;20171;-58
2022/10/17 10:41:26;;;;;;;0.10;0.10;;;23.40;64.70;;;;;;6024562;28;20057;-58
2022/10/17 10:44:31;;;;;;;0.10;0.10;;;23.60;64.90;;;;;;6059138;28;21287;-59
2022/10/17 10:47:33;;;;;;;0.47;0.20;;;22.90;64.20;;;;;;6036679;28;20052;-58
2022/10/17 10:50:39;;;;;;;0.30;0.15;;;23.60;64.30;;;;;;6039740;28;20053;-59
2022/10/17 10:53:52;;;;;;;1.27;0.20;;;23.10;64.90;;;;;;5988630;28;20100;-59
2022/10/17 10:56:57;;;;;;;2.33;0.10;;;23.60;64.70;;;;;;6037261;28;20263;-56
2022/10/17 11:00:07;;;;;;;0.10;0.10;;;23.40;64.60;;;;;;6044656;28;20082;-60
2022/10/17 11:03:13;;;;;;;1.57;0.13;;;23.80;64.70;;;;;;6022117;28;20045;-59
2022/10/17 11:06:22;;;;;;;0.40;0.38;;;23.80;64.80;;;;;;6015057;28;20037;-59
2022/10/17 11:09:46;;;;;;;1.15;0.30;;;23.90;64.80;;;;;;3666891;28;21930;-58
2022/10/17 11:12:57;;;;;;;0.38;0.20;;;23.70;64.30;;;;;;5508495;28;22632;-58
2022/10/17 11:16:03;;;;;;;1.98;0.22;;;23.80;64.50;;;;;;5950552;28;20735;-59
2022/10/17 11:19:13;;;;;;;0.60;0.28;;;23.90;64.50;;;;;;6026945;28;20041;-59
2022/10/17 11:22:20;;;;;;;1.77;0.52;;;23.70;64.20;;;;;;5945497;28;21196;-59
2022/10/17 11:25:33;;;;;;;0.60;0.20;;;23.60;64.20;;;;;;5996716;28;21334;-59
2022/10/17 11:28:34;;;;;;;0.57;0.20;;;23.60;64.10;;;;;;6004419;28;20054;-58
2022/10/17 11:31:40;;;;;;;1.55;0.50;;;23.30;63.80;;;;;;5989200;28;20044;-60
2022/10/17 11:34:46;;;;;;;1.23;0.40;;;23.60;64.20;;;;;;5960259;28;20042;-58
2022/10/17 11:37:54;;;;;;;0.85;0.20;;;23.40;64.00;;;;;;6019714;28;20088;-57
2022/10/17 11:40:59;;;;;;;0.70;0.30;;;23.50;64.00;;;;;;6003696;28;20157;-57
2022/10/17 11:44:06;;;;;;;1.83;0.40;;;23.00;63.70;;;;;;5961416;28;20156;-55
2022/10/17 11:47:19;;;;;;;0.90;0.20;;;23.40;64.00;;;;;;5913957;28;20048;-58
2022/10/17 11:50:25;;;;;;;0.40;0.20;;;23.60;64.20;;;;;;5941343;28;20137;-57
2022/10/17 11:53:52;;;;;;;3.75;0.35;;;23.60;64.10;;;;;;5922144;28;20033;-59
2022/10/17 11:57:13;;;;;;;0.60;0.20;;;23.20;63.70;;;;;;5916365;28;20139;-56
2022/10/17 12:00:24;;;;;;;0.25;0.20;;;23.90;64.30;;;;;;4280051;28;21583;-59
2022/10/17 12:03:53;;;;;;;0.63;0.30;;;23.30;64.70;;;;;;3715740;28;22268;-57
2022/10/17 12:07:09;;;;;;;0.75;0.30;;;23.40;64.10;;;;;;5539262;28;21334;-60
2022/10/17 12:10:38;;;;;;;0.70;0.30;;;23.40;64.10;;;;;;5904458;28;20046;-60
2022/10/17 12:13:53;;;;;;;0.68;0.40;;;23.20;63.20;;;;;;3722091;28;23204;-60
2022/10/17 12:16:56;;;;;;;0.55;0.32;;;22.90;64.10;;;;;;5327142;28;21147;-62
2022/10/17 12:20:23;;;;;;;1.10;0.60;;;24.00;64.40;;;;;;5898634;28;20658;-57
2022/10/17 12:23:27;;;;;;;0.75;0.45;;;23.90;64.30;;;;;;4726282;28;20042;-60
2022/10/17 12:26:32;;;;;;;0.85;0.50;;;23.90;64.20;;;;;;4739161;28;22545;-59
2022/10/17 12:29:39;;;;;;;0.93;0.40;;;23.50;63.40;;;;;;5332798;28;20836;-61
2022/10/17 12:32:57;;;;;;;0.60;0.30;;;23.60;63.90;;;;;;4842186;28;20038;-59
2022/10/17 12:36:38;;;;;;;0.57;0.40;;;23.60;64.30;;;;;;4011837;28;22100;-60
2022/10/17 12:39:41;;;;;;;0.52;0.20;;;23.40;64.60;;;;;;4939316;28;21297;-62
2022/10/17 12:42:47;;;;;;;1.10;0.50;;;24.10;64.50;;;;;;5913779;28;20045;-56
2022/10/17 12:45:52;;;;;;;1.75;0.30;;;23.90;64.40;;;;;;5925998;28;20056;-58
2022/10/17 12:49:02;;;;;;;0.35;0.10;;;23.80;64.40;;;;;;5882917;28;20056;-62
2022/10/17 12:52:19;;;;;;;0.22;0.10;;;24.10;64.40;;;;;;5914912;28;20169;-61
2022/10/17 12:55:24;;;;;;;1.00;0.10;;;24.00;64.30;;;;;;5925815;28;20084;-61
2022/10/17 12:58:26;;;;;;;0.38;0.20;;;24.00;64.30;;;;;;5907473;28;20476;-62
2022/10/17 13:01:36;;;;;;;0.70;0.10;;;24.00;64.10;;;;;;5904630;28;20052;-61
2022/10/17 13:04:38;;;;;;;0.67;0.10;;;24.00;64.10;;;;;;5887187;28;20052;-61
2022/10/17 13:07:42;;;;;;;0.40;0.30;;;23.80;64.20;;;;;;5896275;28;20049;-60
2022/10/17 13:10:47;;;;;;;0.20;0.10;;;23.90;63.80;;;;;;5897373;28;20053;-60
2022/10/17 13:13:58;;;;;;;0.25;0.15;;;24.10;63.90;;;;;;5897630;28;20045;-60
2022/10/17 13:17:02;;;;;;;0.40;0.30;;;24.00;63.80;;;;;;5884837;28;20041;-58
2022/10/17 13:20:18;;;;;;;0.50;0.17;;;24.30;63.80;;;;;;4962777;28;20927;-59
2022/10/17 13:23:31;;;;;;;0.38;0.20;;;24.10;63.60;;;;;;5947738;28;20255;-60
2022/10/17 13:26:33;;;;;;;0.22;0.20;;;24.20;63.60;;;;;;5905139;28;20046;-57
2022/10/17 13:29:34;;;;;;;0.43;0.20;;;23.70;63.30;;;;;;5922281;28;20050;-60
2022/10/17 13:32:40;;;;;;;0.98;0.70;;;24.00;63.40;;;;;;5898062;28;20049;-61
2022/10/17 13:35:42;;;;;;;1.30;1.08;;;23.80;63.20;;;;;;5879883;28;20042;-60
2022/10/17 13:39:07;;;;;;;0.88;0.68;;;24.00;63.20;;;;;;5910180;28;20049;-61
2022/10/17 13:42:21;;;;;;;0.70;0.50;;;24.00;63.30;;;;;;5932852;28;20045;-59
2022/10/17 13:45:30;;;;;;;0.38;0.30;;;23.80;63.30;;;;;;5412288;28;21314;-61
2022/10/17 13:48:37;;;;;;;0.60;0.50;;;23.70;63.80;;;;;;5569004;28;23469;-59
2022/10/17 13:51:43;;;;;;;0.32;0.20;;;23.80;63.90;;;;;;5922329;28;20045;-57
2022/10/17 13:54:50;;;;;;;0.50;0.30;;;24.10;63.30;;;;;;5936887;28;22489;-57
2022/10/17 13:57:51;;;;;;;0.10;0.10;;;24.00;63.60;;;;;;5854131;28;20075;-59
2022/10/17 14:00:53;;;;;;;0.20;0.15;;;24.10;64.00;;;;;;5904657;28;20131;-58
2022/10/17 14:03:55;;;;;;;0.40;0.25;;;24.00;64.00;;;;;;5845595;28;20033;-58
2022/10/17 14:07:24;;;;;;;0.45;0.20;;;24.60;64.50;;;;;;5854017;28;21630;-58
2022/10/17 14:10:32;;;;;;;0.20;0.20;;;23.80;64.40;;;;;;4773810;28;20045;-58
2022/10/17 14:13:36;;;;;;;0.10;0.10;;;24.00;64.80;;;;;;3832590;28;21659;-58
2022/10/17 14:16:41;;;;;;;0.20;0.20;;;23.40;64.90;;;;;;4185526;28;20092;-58
2022/10/17 14:19:48;;;;;;;0.63;0.20;;;24.10;65.10;;;;;;3908730;28;20744;-54
2022/10/17 14:23:28;;;;;;;0.32;0.10;;;24.00;65.30;;;;;;5851905;28;20045;-55
2022/10/17 14:26:35;;;;;;;0.20;0.15;;;24.00;64.80;;;;;;5905274;28;20769;-55
2022/10/17 14:29:50;;;;;;;0.57;0.30;;;23.90;64.80;;;;;;5899439;28;20049;-56
2022/10/17 14:32:55;;;;;;;0.40;0.30;;;23.80;64.70;;;;;;5866496;28;23530;-56
2022/10/17 14:36:00;;;;;;;1.30;0.88;;;24.10;65.00;;;;;;5880790;28;20302;-56
2022/10/17 14:39:04;;;;;;;1.13;0.80;;;24.10;65.00;;;;;;5890766;28;20436;-56
2022/10/17 14:42:05;;;;;;;1.05;0.55;;;24.10;65.20;;;;;;5909993;28;21584;-56
2022/10/17 14:45:12;;;;;;;0.73;0.50;;;23.90;65.20;;;;;;5916645;28;20091;-51
2022/10/17 14:48:16;;;;;;;0.63;0.38;;;24.00;65.10;;;;;;5858161;28;20153;-53
2022/10/17 14:51:19;;;;;;;0.63;0.50;;;24.10;65.30;;;;;;5907734;28;28030;-54
2022/10/17 14:54:25;;;;;;;0.40;0.30;;;24.10;65.30;;;;;;5897278;28;23474;-55
2022/10/17 14:57:33;;;;;;;0.52;0.30;;;24.00;65.20;;;;;;5926681;28;20046;-56
2022/10/17 15:00:35;;;;;;;0.30;0.20;;;24.00;65.20;;;;;;5886852;28;20056;-54
2022/10/17 15:03:37;;;;;;;0.38;0.30;;;23.70;65.20;;;;;;5873149;28;20243;-55
2022/10/17 15:06:41;;;;;;;0.77;0.38;;;23.90;65.20;;;;;;5871189;28;20042;-56
2022/10/17 15:09:48;;;;;;;0.20;0.20;;;23.90;65.20;;;;;;5862817;28;20045;-55
2022/10/17 15:12:50;;;;;;;0.55;0.30;;;24.20;65.20;;;;;;5779807;28;21153;-53
2022/10/17 15:16:01;;;;;;;0.20;0.20;;;23.60;65.80;;;;;;4093376;28;22523;-58
2022/10/17 15:19:03;;;;;;;0.90;0.30;;;23.80;65.20;;;;;;5876545;28;20045;-59
2022/10/17 15:22:05;;;;;;;0.20;0.20;;;23.60;65.00;;;;;;5889854;28;20115;-59
2022/10/17 15:25:07;;;;;;;0.20;0.10;;;24.00;65.40;;;;;;5895008;28;20037;-57
2022/10/17 15:28:11;;;;;;;0.22;0.20;;;24.70;65.80;;;;;;5869058;28;20995;-58
2022/10/17 15:31:15;;;;;;;0.20;0.20;;;23.90;65.40;;;;;;3997876;28;20937;-55
2022/10/17 15:34:21;;;;;;;1.23;0.43;;;23.70;66.20;;;;;;3687839;28;21078;-54
2022/10/17 15:37:25;;;;;;;0.20;0.20;;;23.40;65.80;;;;;;5228735;28;21277;-58
2022/10/17 15:40:29;;;;;;;0.50;0.30;;;23.30;64.40;;;;;;5939610;28;21261;-57
2022/10/17 15:43:31;;;;;;;0.30;0.20;;;23.80;66.50;;;;;;5960674;28;20049;-58
2022/10/17 15:46:34;;;;;;;0.35;0.20;;;24.00;65.50;;;;;;5940284;28;20751;-59
2022/10/17 15:49:36;;;;;;;0.28;0.20;;;23.60;65.20;;;;;;5961443;28;28703;-59
2022/10/17 15:52:38;;;;;;;0.90;0.30;;;24.00;65.50;;;;;;5914369;28;27454;-56
2022/10/17 15:55:41;;;;;;;0.80;0.70;;;23.90;65.50;;;;;;3767046;28;24482;-52
2022/10/17 15:58:43;;;;;;;0.80;0.75;;;23.60;66.10;;;;;;3768256;28;21962;-56
2022/10/17 16:01:45;;;;;;;1.30;0.82;;;24.00;65.40;;;;;;5977820;28;20364;-56
2022/10/17 16:04:47;;;;;;;0.65;0.52;;;23.60;65.00;;;;;;5981313;28;20053;-58
2022/10/17 16:07:50;;;;;;;0.63;0.50;;;23.50;64.90;;;;;;6003744;28;20060;-58
2022/10/17 16:10:52;;;;;;;0.43;0.30;;;23.80;65.20;;;;;;5996653;28;20981;-58
2022/10/17 16:13:58;;;;;;;0.40;0.30;;;24.40;65.50;;;;;;6038918;28;21019;-59
2022/10/17 16:25:43;;;;;;;0.50;0.30;;;23.40;65.20;;;;;;3387963;28;21602;-57
2022/10/17 16:28:46;;;;;;;0.20;0.20;;;24.00;66.00;;;;;;3202123;28;23310;-58
2022/10/17 16:31:50;;;;;;;0.43;0.20;;;23.10;65.60;;;;;;3251913;28;22221;-60
2022/10/17 16:34:52;;;;;;;0.52;0.30;;;23.80;65.70;;;;;;4674312;28;20411;-58